createdAt,value
2018-06-28T00:02:22.278Z,2.47
2018-06-28T00:04:51.987Z,2.43
2018-06-28T00:07:22.378Z,2.77
2018-06-28T00:09:52.303Z,2.60
2018-06-28T00:12:22.152Z,2.40
2018-06-28T00:14:51.854Z,2.33
2018-06-28T00:17:21.664Z,2.37
2018-06-28T00:19:51.395Z,2.70
2018-06-28T00:22:20.998Z,2.87
2018-06-28T00:24:50.714Z,3.40
2018-06-28T00:27:20.535Z,2.60
2018-06-28T00:29:50.612Z,2.53
2018-06-28T00:32:20.059Z,2.93
2018-06-28T00:34:49.827Z,2.83
2018-06-28T00:37:19.758Z,2.53
2018-06-28T00:39:49.145Z,2.80
2018-06-28T00:42:18.476Z,2.57
2018-06-28T00:44:47.872Z,2.70
2018-06-28T00:47:17.281Z,3.20
2018-06-28T00:49:46.623Z,2.53
2018-06-28T00:52:16.094Z,2.30
2018-06-28T00:54:45.432Z,2.67
2018-06-28T00:57:14.808Z,2.67
2018-06-28T00:59:44.157Z,2.90
2018-06-28T01:02:13.631Z,2.70
2018-06-28T01:04:42.953Z,2.90
2018-06-28T01:07:12.303Z,2.70
2018-06-28T01:09:41.612Z,3.00
2018-06-28T01:12:10.957Z,3.03
2018-06-28T01:14:40.605Z,3.40
2018-06-28T01:17:09.888Z,2.73
2018-06-28T01:19:39.210Z,2.90
2018-06-28T01:22:08.523Z,2.87
2018-06-28T01:24:37.833Z,2.80
2018-06-28T01:27:07.130Z,2.70
2018-06-28T01:29:36.456Z,2.90
2018-06-28T01:32:05.836Z,3.90
2018-06-28T01:34:35.133Z,2.87
2018-06-28T01:37:05.046Z,4.53
2018-06-28T01:39:34.347Z,2.90
2018-06-28T01:42:20.650Z,2.90
2018-06-28T01:44:50.150Z,3.10
2018-06-28T01:47:19.528Z,3.03
2018-06-28T01:49:48.863Z,2.93
2018-06-28T01:52:18.202Z,2.83
2018-06-28T01:54:47.556Z,2.87
2018-06-28T01:57:17.044Z,3.47
2018-06-28T01:59:46.391Z,2.80
2018-06-28T02:02:15.808Z,3.30
2018-06-28T02:04:45.153Z,2.80
2018-06-28T02:07:14.468Z,3.10
2018-06-28T02:09:43.735Z,3.53
2018-06-28T02:12:13.071Z,3.50
2018-06-28T02:14:42.371Z,3.27
2018-06-28T02:17:11.699Z,3.07
2018-06-28T02:19:41.272Z,3.33
2018-06-28T02:22:10.611Z,3.20
2018-06-28T02:24:39.978Z,3.50
2018-06-28T02:27:09.315Z,3.40
2018-06-28T02:29:38.627Z,3.23
2018-06-28T02:32:08.002Z,3.03
2018-06-28T02:34:37.320Z,3.10
2018-06-28T02:37:06.688Z,3.33
2018-06-28T02:39:36.024Z,3.20
2018-06-28T02:42:05.519Z,3.03
2018-06-28T02:44:34.831Z,3.10
2018-06-28T02:47:04.187Z,3.30
2018-06-28T02:49:33.554Z,3.00
2018-06-28T02:52:02.956Z,3.30
2018-06-28T02:54:32.254Z,3.90
2018-06-28T02:57:01.598Z,3.03
2018-06-28T02:59:30.891Z,3.07
2018-06-28T03:02:00.182Z,2.93
2018-06-28T03:04:29.714Z,3.23
2018-06-28T03:06:59.019Z,3.57
2018-06-28T03:09:28.424Z,3.20
2018-06-28T03:11:57.767Z,3.43
2018-06-28T03:14:27.081Z,3.80
2018-06-28T03:16:56.372Z,3.67
2018-06-28T03:19:25.712Z,3.70
2018-06-28T03:21:55.027Z,3.50
2018-06-28T03:24:24.333Z,3.70
2018-06-28T03:26:53.991Z,3.60
2018-06-28T03:29:23.276Z,3.40
2018-06-28T03:31:52.582Z,4.07
2018-06-28T03:34:21.936Z,3.03
2018-06-28T03:36:51.242Z,4.03
2018-06-28T03:39:20.575Z,3.90
2018-06-28T03:41:49.936Z,3.73
2018-06-28T03:44:19.232Z,3.70
2018-06-28T03:46:48.544Z,3.63
2018-06-28T03:49:18.280Z,3.50
2018-06-28T03:51:47.544Z,4.07
2018-06-28T03:54:16.821Z,4.60
2018-06-28T03:56:46.077Z,4.47
2018-06-28T03:59:15.520Z,4.20
2018-06-28T04:01:44.818Z,4.40
2018-06-28T04:04:14.097Z,4.23
2018-06-28T04:06:43.468Z,4.53
2018-06-28T04:09:12.858Z,4.10
2018-06-28T04:11:42.427Z,4.03
2018-06-28T04:14:11.811Z,4.00
2018-06-28T04:16:41.122Z,4.10
2018-06-28T04:19:10.192Z,4.67
2018-06-28T04:21:39.527Z,4.60
2018-06-28T04:24:08.567Z,4.40
2018-06-28T04:26:37.856Z,4.50
2018-06-28T04:29:07.142Z,4.33
2018-06-28T04:31:36.457Z,4.90
2018-06-28T04:34:05.836Z,4.70
2018-06-28T04:36:34.858Z,4.80
2018-06-28T04:39:06.246Z,4.60
2018-06-28T04:41:35.515Z,4.97
2018-06-28T04:44:04.906Z,4.33
2018-06-28T04:46:34.180Z,4.80
2018-06-28T04:49:03.416Z,5.50
2018-06-28T04:51:32.701Z,5.10
2018-06-28T04:54:02.046Z,4.37
2018-06-28T04:56:31.884Z,4.13
2018-06-28T04:59:01.179Z,4.47
2018-06-28T05:01:30.477Z,5.60
2018-06-28T05:03:59.856Z,4.37
2018-06-28T05:06:29.175Z,4.97
2018-06-28T05:08:58.459Z,4.33
2018-06-28T05:11:28.067Z,5.27
2018-06-28T05:13:57.391Z,4.40
2018-06-28T05:16:26.695Z,5.50
2018-06-28T05:18:56.141Z,4.43
2018-06-28T05:21:25.493Z,4.90
2018-06-28T05:23:54.846Z,4.70
2018-06-28T05:26:24.198Z,4.80
2018-06-28T05:28:53.486Z,5.00
2018-06-28T05:31:22.802Z,4.93
2018-06-28T05:33:52.137Z,5.20
2018-06-28T05:36:21.469Z,4.87
2018-06-28T05:38:50.824Z,5.67
2018-06-28T05:41:20.387Z,4.70
2018-06-28T05:43:49.743Z,4.50
2018-06-28T05:46:18.817Z,4.67
2018-06-28T05:48:48.223Z,4.50
2018-06-28T05:51:17.588Z,5.50
2018-06-28T05:53:46.888Z,4.97
2018-06-28T05:56:16.180Z,5.70
2018-06-28T05:58:45.582Z,4.60
2018-06-28T06:01:14.960Z,5.03
2018-06-28T06:03:44.550Z,5.20
2018-06-28T06:06:13.843Z,4.33
2018-06-28T06:08:43.146Z,4.87
2018-06-28T06:11:12.488Z,4.57
2018-06-28T06:13:42.237Z,4.57
2018-06-28T06:16:11.587Z,3.63
2018-06-28T06:18:40.916Z,4.10
2018-06-28T06:21:10.245Z,5.07
2018-06-28T06:23:39.584Z,5.30
2018-06-28T06:26:08.967Z,3.97
2018-06-28T06:28:38.324Z,4.70
2018-06-28T06:31:07.670Z,5.00
2018-06-28T06:33:37.098Z,4.80
2018-06-28T06:36:06.690Z,5.67
2018-06-28T06:38:35.995Z,4.60
2018-06-28T06:41:05.348Z,4.70
2018-06-28T06:43:34.727Z,4.00
2018-06-28T06:46:04.074Z,4.23
2018-06-28T06:48:33.783Z,4.60
2018-06-28T06:51:03.084Z,4.20
2018-06-28T06:53:32.475Z,4.00
2018-06-28T06:56:01.895Z,3.97
2018-06-28T06:58:31.289Z,4.33
2018-06-28T07:01:00.594Z,4.07
2018-06-28T07:03:30.091Z,4.47
2018-06-28T07:05:59.413Z,4.17
2018-06-28T07:08:29.024Z,4.13
2018-06-28T07:10:58.723Z,4.03
2018-06-28T07:13:28.100Z,4.13
2018-06-28T07:15:57.696Z,3.60
2018-06-28T07:18:27.087Z,3.93
2018-06-28T07:20:56.415Z,4.30
2018-06-28T07:23:25.743Z,4.10
2018-06-28T07:25:55.060Z,4.00
2018-06-28T07:28:24.517Z,3.73
2018-06-28T07:30:53.988Z,3.47
2018-06-28T07:33:23.383Z,3.60
2018-06-28T07:35:52.822Z,4.40
2018-06-28T07:38:22.287Z,3.73
2018-06-28T07:40:51.651Z,4.00
2018-06-28T07:43:21.210Z,4.03
2018-06-28T07:45:50.640Z,3.50
2018-06-28T07:48:20.108Z,4.30
2018-06-28T07:50:49.521Z,3.47
2018-06-28T07:53:18.807Z,4.30
2018-06-28T07:55:48.299Z,3.63
2018-06-28T07:58:17.678Z,3.47
2018-06-28T08:00:47.103Z,4.00
2018-06-28T08:03:16.551Z,3.50
2018-06-28T08:05:45.872Z,4.13
2018-06-28T08:08:15.289Z,4.63
2018-06-28T08:10:44.704Z,3.47
2018-06-28T08:13:14.134Z,3.57
2018-06-28T08:15:43.567Z,3.60
2018-06-28T08:18:13.379Z,3.40
2018-06-28T08:20:42.735Z,3.10
2018-06-28T08:23:12.090Z,3.43
2018-06-28T08:25:41.488Z,3.37
2018-06-28T08:28:11.019Z,3.67
2018-06-28T08:30:40.387Z,3.30
2018-06-28T08:33:09.782Z,2.90
2018-06-28T08:35:39.069Z,3.43
2018-06-28T08:38:08.406Z,3.70
2018-06-28T08:40:37.883Z,3.20
2018-06-28T08:43:07.361Z,3.60
2018-06-28T08:45:36.688Z,3.63
2018-06-28T08:48:06.207Z,3.20
2018-06-28T08:50:35.549Z,3.03
2018-06-28T08:53:04.941Z,3.27
2018-06-28T08:55:34.398Z,4.47
2018-06-28T08:58:03.927Z,2.87
2018-06-28T09:00:33.515Z,2.60
2018-06-28T09:03:03.071Z,3.03
2018-06-28T09:05:32.473Z,2.40
2018-06-28T09:08:01.833Z,2.77
2018-06-28T09:10:31.152Z,2.90
2018-06-28T09:13:00.464Z,2.93
2018-06-28T09:15:29.835Z,3.33
2018-06-28T09:17:59.258Z,2.53
2018-06-28T09:20:28.633Z,3.60
2018-06-28T09:22:58.096Z,3.00
2018-06-28T09:25:27.518Z,3.00
2018-06-28T09:27:56.840Z,2.73
2018-06-28T09:30:26.250Z,2.97
2018-06-28T09:32:55.582Z,2.53
2018-06-28T09:35:24.984Z,2.50
2018-06-28T09:37:54.415Z,2.63
2018-06-28T09:40:24.101Z,2.80
2018-06-28T09:42:53.570Z,2.30
2018-06-28T09:45:22.855Z,2.40
2018-06-28T09:47:52.570Z,2.23
2018-06-28T09:50:21.920Z,2.33
2018-06-28T09:52:51.327Z,2.40
2018-06-28T09:55:20.681Z,2.77
2018-06-28T09:57:50.081Z,2.50
2018-06-28T10:00:54.995Z,2.87
2018-06-28T10:03:24.374Z,2.50
2018-06-28T10:05:53.542Z,3.60
2018-06-28T10:08:23.222Z,3.70
2018-06-28T10:10:52.522Z,3.47
2018-06-28T10:13:21.983Z,4.83
2018-06-28T10:15:51.331Z,3.60
2018-06-28T10:18:20.685Z,2.87
2018-06-28T10:20:50.038Z,6.67
2018-06-28T10:23:19.366Z,2.77
2018-06-28T10:25:48.692Z,3.70
2018-06-28T10:28:18.066Z,2.37
2018-06-28T10:30:47.707Z,4.07
2018-06-28T10:33:16.869Z,2.80
2018-06-28T10:35:46.171Z,2.43
2018-06-28T10:38:15.670Z,2.70
2018-06-28T10:40:45.012Z,2.97
2018-06-28T10:43:14.361Z,3.33
2018-06-28T10:45:43.679Z,3.97
2018-06-28T10:48:13.025Z,2.33
2018-06-28T10:50:42.437Z,2.87
2018-06-28T10:53:12.379Z,2.80
2018-06-28T10:55:41.767Z,2.57
2018-06-28T10:58:11.095Z,2.23
2018-06-28T11:00:40.526Z,2.90
2018-06-28T11:03:09.835Z,2.13
2018-06-28T11:05:39.189Z,2.73
2018-06-28T11:08:08.568Z,2.40
2018-06-28T11:10:38.039Z,2.40
2018-06-28T11:13:07.358Z,2.20
2018-06-28T11:15:36.931Z,3.17
2018-06-28T11:18:06.359Z,2.50
2018-06-28T11:20:35.667Z,2.90
2018-06-28T11:23:05.062Z,2.53
2018-06-28T11:25:34.350Z,3.00
2018-06-28T11:28:03.667Z,2.93
2018-06-28T11:30:33.030Z,2.00
2018-06-28T11:33:02.404Z,2.30
2018-06-28T11:35:31.800Z,2.37
2018-06-28T11:38:01.310Z,2.23
2018-06-28T11:40:30.714Z,2.40
2018-06-28T11:43:00.096Z,2.17
2018-06-28T11:45:29.477Z,2.03
2018-06-28T11:47:58.983Z,2.00
2018-06-28T11:50:28.387Z,2.20
2018-06-28T11:52:57.810Z,2.40
2018-06-28T11:55:27.450Z,2.50
2018-06-28T11:57:56.817Z,2.60
2018-06-28T12:00:26.367Z,2.37
2018-06-28T12:02:55.656Z,2.10
2018-06-28T12:05:25.037Z,2.40
2018-06-28T12:07:54.397Z,1.70
2018-06-28T12:10:23.753Z,2.10
2018-06-28T12:12:53.163Z,2.20
2018-06-28T12:15:22.267Z,2.30
2018-06-28T12:17:51.627Z,1.90
2018-06-28T12:20:20.954Z,2.13
2018-06-28T12:22:50.505Z,2.53
2018-06-28T12:25:19.826Z,2.00
2018-06-28T12:27:49.127Z,2.13
2018-06-28T12:30:18.463Z,2.40
2018-06-28T12:32:47.978Z,1.80
2018-06-28T12:35:17.438Z,2.63
2018-06-28T12:37:46.814Z,1.97
2018-06-28T12:40:16.106Z,2.00
2018-06-28T12:42:45.412Z,1.50
2018-06-28T12:45:16.819Z,2.10
2018-06-28T12:48:11.108Z,2.27
2018-06-28T12:50:40.462Z,2.87
2018-06-28T12:53:10.942Z,2.03
2018-06-28T12:56:24.849Z,2.00
2018-06-28T12:58:55.227Z,2.10
2018-06-28T13:01:25.663Z,1.77
2018-06-28T13:03:55.356Z,1.90
2018-06-28T13:06:24.641Z,2.13
2018-06-28T13:08:55.007Z,2.60
2018-06-28T13:11:24.706Z,2.27
2018-06-28T13:13:54.339Z,1.90
2018-06-28T13:16:25.202Z,1.83
2018-06-28T13:18:54.639Z,2.07
2018-06-28T13:21:23.986Z,1.60
2018-06-28T13:23:54.296Z,2.10
2018-06-28T13:26:23.760Z,1.83
2018-06-28T13:28:53.162Z,2.20
2018-06-28T13:31:22.635Z,2.00
2018-06-28T13:33:51.939Z,1.90
2018-06-28T13:36:21.275Z,2.03
2018-06-28T13:38:50.802Z,1.90
2018-06-28T13:41:20.273Z,2.00
2018-06-28T13:43:49.677Z,1.77
2018-06-28T13:46:19.845Z,2.27
2018-06-28T13:48:49.169Z,1.70
2018-06-28T13:51:18.451Z,1.90
2018-06-28T13:53:47.808Z,1.53
2018-06-28T13:56:17.158Z,2.37
2018-06-28T13:58:46.546Z,1.57
2018-06-28T14:01:15.956Z,3.90
2018-06-28T14:03:45.270Z,1.67
2018-06-28T14:06:14.620Z,1.80
2018-06-28T14:08:44.470Z,1.70
2018-06-28T14:11:13.857Z,1.70
2018-06-28T14:13:43.215Z,1.80
2018-06-28T14:16:12.576Z,1.90
2018-06-28T14:18:41.930Z,1.93
2018-06-28T14:21:11.321Z,2.07
2018-06-28T14:23:40.647Z,2.07
2018-06-28T14:26:09.962Z,2.07
2018-06-28T14:28:39.259Z,1.67
2018-06-28T14:31:08.729Z,1.70
2018-06-28T14:33:38.058Z,1.70
2018-06-28T14:36:07.319Z,1.90
2018-06-28T14:38:36.748Z,1.40
2018-06-28T14:41:06.351Z,2.00
2018-06-28T14:43:35.717Z,1.97
2018-06-28T14:46:05.339Z,1.40
2018-06-28T14:48:35.291Z,1.87
2018-06-28T14:51:04.786Z,1.93
2018-06-28T14:53:34.566Z,1.60
2018-06-28T14:56:04.084Z,1.97
2018-06-28T14:58:33.568Z,1.90
2018-06-28T15:01:02.959Z,1.83
2018-06-28T15:03:32.331Z,1.73
2018-06-28T15:06:01.678Z,1.70
2018-06-28T15:08:31.135Z,1.57
2018-06-28T15:11:00.459Z,1.83
2018-06-28T15:13:29.751Z,2.03
2018-06-28T15:15:59.690Z,1.53
2018-06-28T15:18:29.116Z,1.60
2018-06-28T15:20:58.410Z,1.80
2018-06-28T15:23:27.534Z,1.53
2018-06-28T15:25:56.900Z,1.70
2018-06-28T15:28:26.294Z,1.67
2018-06-28T15:30:55.984Z,2.27
2018-06-28T15:33:25.391Z,1.97
2018-06-28T15:35:54.707Z,1.67
2018-06-28T15:38:24.190Z,1.90
2018-06-28T15:40:53.604Z,1.87
2018-06-28T15:43:22.911Z,1.70
2018-06-28T15:45:52.359Z,1.80
2018-06-28T15:48:21.707Z,2.50
2018-06-28T15:50:51.010Z,1.80
2018-06-28T15:53:20.386Z,1.80
2018-06-28T15:55:49.683Z,1.90
2018-06-28T15:58:19.052Z,2.47
2018-06-28T16:00:48.769Z,2.20
2018-06-28T16:03:18.088Z,1.77
2018-06-28T16:05:47.443Z,1.80
2018-06-28T16:08:16.814Z,1.93
2018-06-28T16:10:46.304Z,1.80
2018-06-28T16:13:15.643Z,2.07
2018-06-28T16:15:45.024Z,2.10
2018-06-28T16:18:14.367Z,1.83
2018-06-28T16:20:43.755Z,1.90
2018-06-28T16:23:13.528Z,2.27
2018-06-28T16:25:42.905Z,1.50
2018-06-28T16:28:12.206Z,1.70
2018-06-28T16:30:41.672Z,2.10
2018-06-28T16:33:10.944Z,1.60
2018-06-28T16:35:40.312Z,2.07
2018-06-28T16:38:09.708Z,1.63
2018-06-28T16:40:39.061Z,2.00
2018-06-28T16:43:08.430Z,3.50
2018-06-28T16:45:38.151Z,2.10
2018-06-28T16:48:07.504Z,1.93
2018-06-28T16:50:36.831Z,1.80
2018-06-28T16:53:06.182Z,1.50
2018-06-28T16:55:35.551Z,1.93
2018-06-28T16:58:04.875Z,2.10
2018-06-28T17:00:34.232Z,2.80
2018-06-28T17:03:03.555Z,2.70
2018-06-28T17:05:32.906Z,2.77
2018-06-28T17:08:02.651Z,3.20
2018-06-28T17:10:31.913Z,5.73
2018-06-28T17:13:01.462Z,4.47
2018-06-28T17:15:30.858Z,4.47
2018-06-28T17:18:00.219Z,2.83
2018-06-28T17:20:29.657Z,2.80
2018-06-28T17:22:59.274Z,3.40
2018-06-28T17:25:28.615Z,1.90
2018-06-28T17:27:58.098Z,1.83
2018-06-28T17:30:27.841Z,1.50
2018-06-28T17:32:57.398Z,1.70
2018-06-28T17:35:26.698Z,1.53
2018-06-28T17:37:56.107Z,1.93
2018-06-28T17:40:25.557Z,1.93
2018-06-28T17:42:55.020Z,1.90
2018-06-28T17:45:24.357Z,1.60
2018-06-28T17:47:53.739Z,2.00
2018-06-28T17:50:23.143Z,1.90
2018-06-28T17:52:53.291Z,1.20
2018-06-28T17:55:22.854Z,1.40
2018-06-28T17:57:52.384Z,1.80
2018-06-28T18:00:21.914Z,1.43
2018-06-28T18:02:51.290Z,1.80
2018-06-28T18:05:20.648Z,1.60
2018-06-28T18:07:50.034Z,1.60
2018-06-28T18:10:19.437Z,1.80
2018-06-28T18:12:48.869Z,1.80
2018-06-28T18:15:18.438Z,1.43
2018-06-28T18:17:48.015Z,1.43
2018-06-28T18:20:17.317Z,2.20
2018-06-28T18:22:46.656Z,1.63
2018-06-28T18:25:16.380Z,1.57
2018-06-28T18:27:45.918Z,1.33
2018-06-28T18:30:15.322Z,1.63
2018-06-28T18:32:44.738Z,1.90
2018-06-28T18:35:14.123Z,1.57
2018-06-28T18:37:43.638Z,1.80
2018-06-28T18:40:13.099Z,1.37
2018-06-28T18:42:42.461Z,2.17
2018-06-28T18:45:11.922Z,1.97
2018-06-28T18:47:41.272Z,2.10
2018-06-28T18:50:10.755Z,1.90
2018-06-28T18:52:40.216Z,1.70
2018-06-28T18:55:09.567Z,2.00
2018-06-28T18:57:39.010Z,2.57
2018-06-28T19:00:08.588Z,2.57
2018-06-28T19:02:37.942Z,2.20
2018-06-28T19:05:07.380Z,2.00
2018-06-28T19:07:36.777Z,2.10
2018-06-28T19:10:11.485Z,2.20
2018-06-28T19:12:40.922Z,1.93
2018-06-28T19:15:15.560Z,1.93
2018-06-28T19:17:45.422Z,1.80
2018-06-28T19:20:14.784Z,2.07
2018-06-28T19:22:49.405Z,2.30
2018-06-28T19:25:18.810Z,2.20
2018-06-28T19:27:48.187Z,2.40
2018-06-28T19:30:22.841Z,2.30
2018-06-28T19:32:52.193Z,2.53
2018-06-28T19:35:21.705Z,3.13
2018-06-28T19:37:52.037Z,2.90
2018-06-28T19:40:26.851Z,2.03
2018-06-28T19:42:58.731Z,2.17
2018-06-28T19:45:28.172Z,1.50
2018-06-28T19:47:57.516Z,1.63
2018-06-28T19:50:32.058Z,1.80
2018-06-28T19:53:11.796Z,1.70
2018-06-28T19:55:41.273Z,1.73
2018-06-28T19:58:10.705Z,1.57
2018-06-28T20:00:45.406Z,1.90
2018-06-28T20:03:19.996Z,1.93
2018-06-28T20:05:49.422Z,2.17
2018-06-28T20:08:18.899Z,1.83
2018-06-28T20:10:48.304Z,2.00
2018-06-28T20:13:23.162Z,2.10
2018-06-28T20:15:58.301Z,2.30
2018-06-28T20:18:33.609Z,2.63
2018-06-28T20:21:03.592Z,2.27
2018-06-28T20:23:32.940Z,2.60
2018-06-28T20:26:07.650Z,3.03
2018-06-28T20:28:42.098Z,3.80
2018-06-28T20:31:17.128Z,2.27
2018-06-28T20:33:51.780Z,2.30
2018-06-28T20:36:21.230Z,2.80
2018-06-28T20:38:50.647Z,2.53
2018-06-28T20:41:21.035Z,2.27
2018-06-28T20:43:51.239Z,2.90
2018-06-28T20:46:20.633Z,3.00
2018-06-28T20:48:50.005Z,3.60
2018-06-28T20:51:19.510Z,3.07
2018-06-28T20:53:48.906Z,3.33
2018-06-28T20:56:18.386Z,3.00
2018-06-28T20:58:47.779Z,3.83
2018-06-28T21:01:17.350Z,3.30
2018-06-28T21:03:46.763Z,3.53
2018-06-28T21:06:16.176Z,3.20
2018-06-28T21:08:45.537Z,3.60
2018-06-28T21:11:14.859Z,3.60
2018-06-28T21:13:44.376Z,3.40
2018-06-28T21:16:13.715Z,4.37
2018-06-28T21:18:43.557Z,3.33
2018-06-28T21:21:13.173Z,3.70
2018-06-28T21:23:42.571Z,3.80
2018-06-28T21:26:11.926Z,4.60
2018-06-28T21:28:41.330Z,3.50
2018-06-28T21:31:10.665Z,4.50
2018-06-28T21:33:40.416Z,4.63
2018-06-28T21:36:10.069Z,4.07
2018-06-28T21:38:39.420Z,4.13
2018-06-28T21:41:08.784Z,3.33
2018-06-28T21:43:38.153Z,3.57
2018-06-28T21:46:07.471Z,3.50
2018-06-28T21:48:36.967Z,3.23
2018-06-28T21:51:06.450Z,3.23
2018-06-28T21:53:35.877Z,3.33
2018-06-28T21:56:05.217Z,3.40
2018-06-28T21:58:34.654Z,3.40
2018-06-28T22:01:03.997Z,3.03
2018-06-28T22:03:33.319Z,3.27
2018-06-28T22:06:02.792Z,3.80
2018-06-28T22:08:32.119Z,3.30
2018-06-28T22:11:01.666Z,3.63
2018-06-28T22:13:31.048Z,3.80
2018-06-28T22:16:00.417Z,5.03
2018-06-28T22:18:29.722Z,5.10
2018-06-28T22:20:59.423Z,3.70
2018-06-28T22:23:28.769Z,3.83
2018-06-28T22:25:58.162Z,3.80
2018-06-28T22:28:27.594Z,3.40
2018-06-28T22:30:56.912Z,4.17
2018-06-28T22:33:26.293Z,4.10
2018-06-28T22:35:55.639Z,3.77
2018-06-28T22:38:25.000Z,4.10
2018-06-28T22:40:54.386Z,4.07
2018-06-28T22:43:23.956Z,4.20
2018-06-28T22:45:53.233Z,5.07
2018-06-28T22:48:22.556Z,3.80
2018-06-28T22:50:51.931Z,4.00
2018-06-28T22:53:21.224Z,3.83
2018-06-28T22:55:50.864Z,3.97
2018-06-28T22:58:20.205Z,4.50
2018-06-28T23:00:49.535Z,3.77
2018-06-28T23:03:18.836Z,4.53
2018-06-28T23:05:48.338Z,4.67
2018-06-28T23:08:17.703Z,4.43
2018-06-28T23:10:47.111Z,5.43
2018-06-28T23:13:16.503Z,4.50
2018-06-28T23:15:45.850Z,4.60
2018-06-28T23:18:15.302Z,4.00
2018-06-28T23:20:44.638Z,3.87
2018-06-28T23:23:13.932Z,4.37
2018-06-28T23:25:43.352Z,4.07
2018-06-28T23:28:12.984Z,4.53
2018-06-28T23:30:42.370Z,4.40
2018-06-28T23:33:11.669Z,4.73
2018-06-28T23:35:41.204Z,4.80
2018-06-28T23:38:10.669Z,4.67
2018-06-28T23:40:40.048Z,4.47
2018-06-28T23:43:09.456Z,4.30
2018-06-28T23:45:39.053Z,4.63
2018-06-28T23:48:08.460Z,4.03
2018-06-28T23:50:37.926Z,4.27
2018-06-28T23:53:07.677Z,4.60
2018-06-28T23:55:37.335Z,4.20
2018-06-28T23:58:06.838Z,3.83
